Time,TemperatureF,DewpointF,PressureIn,WindDirection,WindDirectionDegrees,WindSpeedMPH,WindSpeedGustMPH,Humidity,HourlyPrecipIn,Conditions,Clouds,dailyrainin,SoftwareType,DateUTC
2013-03-21 00:00:00,33.8,22.1,29.70,SSW,208,0.0,0.0,62,0.00,,,0.10,Wunderground v.1.15,2013-03-21 04:00:00,
2013-03-21 00:10:00,33.5,22.2,29.70,SSW,208,0.0,0.0,63,0.00,,,0.10,Wunderground v.1.15,2013-03-21 04:10:00,
2013-03-21 00:20:00,33.5,22.2,29.71,SSW,208,0.0,0.0,63,0.00,,,0.10,Wunderground v.1.15,2013-03-21 04:20:00,
2013-03-21 00:30:00,33.5,22.2,29.71,SSW,208,0.0,0.0,63,0.00,,,0.10,Wunderground v.1.15,2013-03-21 04:30:00,
2013-03-21 00:40:00,33.5,21.9,29.71,SSW,208,0.0,0.0,62,0.00,,,0.10,Wunderground v.1.15,2013-03-21 04:40:00,
2013-03-21 00:50:00,33.5,22.6,29.71,SSW,208,0.0,0.0,64,0.00,,,0.10,Wunderground v.1.15,2013-03-21 04:50:00,
2013-03-21 01:00:00,33.4,22.1,29.70,SSW,206,0.0,0.0,63,0.00,,,0.10,Wunderground v.1.15,2013-03-21 05:00:00,
2013-03-21 01:10:00,33.2,21.6,29.70,SSW,206,0.0,0.0,62,0.00,,,0.00,Wunderground v.1.15,2013-03-21 05:10:00,
2013-03-21 01:20:00,33.1,20.7,29.70,SSW,206,0.0,0.0,60,0.00,,,0.00,Wunderground v.1.15,2013-03-21 05:20:00,
2013-03-21 01:30:00,32.9,22.4,29.70,SSW,206,0.0,0.0,65,0.00,,,0.00,Wunderground v.1.15,2013-03-21 05:30:00,
2013-03-21 01:40:00,32.8,22.3,29.70,East,85,0.0,0.0,65,0.00,,,0.00,Wunderground v.1.15,2013-03-21 05:40:00,
2013-03-21 01:50:00,32.8,22.0,29.70,East,86,0.0,0.0,64,0.00,,,0.00,Wunderground v.1.15,2013-03-21 05:50:00,
2013-03-21 02:00:00,32.8,22.0,29.70,North,4,0.0,0.0,64,0.00,,,0.00,Wunderground v.1.15,2013-03-21 06:00:00,
2013-03-21 02:10:00,32.5,24.1,29.70,North,4,0.0,0.0,71,0.00,,,0.00,Wunderground v.1.15,2013-03-21 06:10:00,
2013-03-21 02:20:00,31.9,23.9,29.69,North,4,0.0,0.0,72,0.00,,,0.00,Wunderground v.1.15,2013-03-21 06:20:00,
2013-03-21 02:30:00,31.6,23.9,29.68,North,8,0.0,0.0,73,0.00,,,0.00,Wunderground v.1.15,2013-03-21 06:30:00,
2013-03-21 02:40:00,31.3,23.6,29.68,North,8,0.0,0.0,73,0.00,,,0.00,Wunderground v.1.15,2013-03-21 06:40:00,
2013-03-21 02:50:00,31.3,24.0,29.68,West,260,0.0,2.0,74,0.00,,,0.00,Wunderground v.1.15,2013-03-21 06:50:00,
2013-03-21 03:00:00,31.2,23.9,29.67,ENE,71,0.0,0.0,74,0.00,,,0.00,Wunderground v.1.15,2013-03-21 07:00:00,
2013-03-21 03:10:00,31.0,24.3,29.67,ENE,71,0.0,0.0,76,0.00,,,0.00,Wunderground v.1.15,2013-03-21 07:10:00,
2013-03-21 03:20:00,30.9,24.2,29.67,ENE,71,0.0,0.0,76,0.00,,,0.00,Wunderground v.1.15,2013-03-21 07:20:00,
2013-03-21 03:30:00,30.9,24.5,29.67,ENE,71,0.0,0.0,77,0.00,,,0.00,Wunderground v.1.15,2013-03-21 07:30:00,
2013-03-21 03:40:00,30.7,24.3,29.67,ENE,71,0.0,0.0,77,0.00,,,0.00,Wunderground v.1.15,2013-03-21 07:40:00,
2013-03-21 03:50:00,30.7,24.0,29.67,ENE,71,0.0,0.0,76,0.00,,,0.00,Wunderground v.1.15,2013-03-21 07:50:00,
2013-03-21 04:00:00,30.6,24.2,29.66,ENE,71,0.0,0.0,77,0.00,,,0.00,Wunderground v.1.15,2013-03-21 08:00:00,
2013-03-21 04:10:00,30.6,24.6,29.66,ENE,71,0.0,0.0,78,0.00,,,0.00,Wunderground v.1.15,2013-03-21 08:10:00,
2013-03-21 04:20:00,30.4,24.1,29.66,ENE,71,0.0,0.0,77,0.00,,,0.00,Wunderground v.1.15,2013-03-21 08:20:00,
2013-03-21 04:30:00,30.6,23.3,29.65,ENE,75,0.0,0.0,74,0.00,,,0.00,Wunderground v.1.15,2013-03-21 08:30:00,
2013-03-21 04:40:00,30.6,23.3,29.65,SE,126,0.0,0.0,74,0.00,,,0.00,Wunderground v.1.15,2013-03-21 08:40:00,
2013-03-21 04:50:00,30.7,22.4,29.64,SE,126,0.0,0.0,71,0.00,,,0.00,Wunderground v.1.15,2013-03-21 08:50:00,
2013-03-21 05:00:00,30.7,20.7,29.65,SSW,198,0.0,0.0,66,0.00,,,0.00,Wunderground v.1.15,2013-03-21 09:00:00,
2013-03-21 05:10:00,30.7,20.3,29.65,SSW,206,0.0,0.0,65,0.00,,,0.00,Wunderground v.1.15,2013-03-21 09:10:00,
2013-03-21 05:20:00,30.7,19.6,29.65,ESE,114,0.0,0.0,63,0.00,,,0.00,Wunderground v.1.15,2013-03-21 09:20:00,
2013-03-21 05:30:00,30.6,18.7,29.65,SW,230,0.0,0.0,61,0.00,,,0.00,Wunderground v.1.15,2013-03-21 09:30:00,
2013-03-21 05:40:00,30.4,18.2,29.65,SSW,200,0.0,0.0,60,0.00,,,0.00,Wunderground v.1.15,2013-03-21 09:40:00,
2013-03-21 05:50:00,30.1,17.9,29.66,SW,220,1.0,1.0,60,0.00,,,0.00,Wunderground v.1.15,2013-03-21 09:50:00,
2013-03-21 06:00:00,30.0,17.8,29.65,NNE,25,1.0,2.0,60,0.00,,,0.00,Wunderground v.1.15,2013-03-21 10:00:00,
2013-03-21 06:10:00,29.8,17.6,29.65,WNW,299,0.0,0.0,60,0.00,,,0.00,Wunderground v.1.15,2013-03-21 10:10:00,
2013-03-21 06:20:00,29.8,17.6,29.66,SW,223,1.0,2.0,60,0.00,,,0.00,Wunderground v.1.15,2013-03-21 10:20:00,
2013-03-21 06:30:00,29.7,17.5,29.66,SSE,148,0.0,0.0,60,0.00,,,0.00,Wunderground v.1.15,2013-03-21 10:30:00,
2013-03-21 06:40:00,29.7,12.8,29.66,SSE,150,0.0,0.0,49,0.00,,,0.00,Wunderground v.1.15,2013-03-21 10:40:00,
2013-03-21 06:50:00,29.7,14.2,29.66,SSW,202,0.0,0.0,52,0.00,,,0.00,Wunderground v.1.15,2013-03-21 10:50:00,
2013-03-21 07:00:00,29.7,13.8,29.66,SSW,202,0.0,0.0,51,0.00,,,0.00,Wunderground v.1.15,2013-03-21 11:00:00,
2013-03-21 07:10:00,29.5,15.3,29.66,SSW,202,0.0,0.0,55,0.00,,,0.00,Wunderground v.1.15,2013-03-21 11:10:00,
2013-03-21 07:20:00,29.5,15.7,29.67,SSW,202,0.0,0.0,56,0.00,,,0.00,Wunderground v.1.15,2013-03-21 11:20:00,
2013-03-21 07:30:00,29.5,14.0,29.67,SSW,202,0.0,0.0,52,0.00,,,0.00,Wunderground v.1.15,2013-03-21 11:30:00,
2013-03-21 07:40:00,29.7,14.2,29.67,SW,233,1.0,1.0,52,0.00,,,0.00,Wunderground v.1.15,2013-03-21 11:40:00,
2013-03-21 07:50:00,29.5,14.0,29.66,South,169,0.0,1.0,52,0.00,,,0.00,Wunderground v.1.15,2013-03-21 11:50:00,
2013-03-21 08:00:00,29.5,14.5,29.66,South,186,0.0,0.0,53,0.00,,,0.00,Wunderground v.1.15,2013-03-21 12:00:00,
2013-03-21 08:10:00,29.5,13.6,29.66,East,88,0.0,0.0,51,0.00,,,0.00,Wunderground v.1.15,2013-03-21 12:10:00,
2013-03-21 08:20:00,29.5,13.6,29.66,SSW,198,0.0,2.0,51,0.00,,,0.00,Wunderground v.1.15,2013-03-21 12:20:00,
2013-03-21 08:30:00,29.8,14.3,29.66,SSW,208,0.0,0.0,52,0.00,,,0.00,Wunderground v.1.15,2013-03-21 12:30:00,
2013-03-21 08:40:00,30.1,15.4,29.66,SSW,208,0.0,0.0,54,0.00,,,0.00,Wunderground v.1.15,2013-03-21 12:40:00,
2013-03-21 08:50:00,30.0,14.0,29.66,SE,124,1.0,1.0,51,0.00,,,0.00,Wunderground v.1.15,2013-03-21 12:50:00,
2013-03-21 09:00:00,30.1,14.1,29.65,South,186,0.0,0.0,51,0.00,,,0.00,Wunderground v.1.15,2013-03-21 13:00:00,
2013-03-21 09:10:00,30.3,14.3,29.65,South,182,0.0,2.0,51,0.00,,,0.00,Wunderground v.1.15,2013-03-21 13:10:00,
2013-03-21 09:20:00,30.6,15.0,29.65,SSW,193,0.0,0.0,52,0.00,,,0.00,Wunderground v.1.15,2013-03-21 13:20:00,
2013-03-21 09:30:00,30.7,15.1,29.64,SSW,198,0.0,2.0,52,0.00,,,0.00,Wunderground v.1.15,2013-03-21 13:30:00,
2013-03-21 09:40:00,30.9,14.9,29.64,SSW,198,0.0,0.0,51,0.00,,,0.00,Wunderground v.1.15,2013-03-21 13:40:00,
2013-03-21 09:50:00,31.2,15.2,29.64,SSE,155,0.0,1.0,51,0.00,,,0.00,Wunderground v.1.15,2013-03-21 13:50:00,
2013-03-21 10:00:00,31.5,15.4,29.63,SW,234,1.0,1.0,51,0.00,,,0.00,Wunderground v.1.15,2013-03-21 14:00:00,
2013-03-21 10:10:00,31.6,16.0,29.63,East,96,1.0,1.0,52,0.00,,,0.00,Wunderground v.1.15,2013-03-21 14:10:00,
2013-03-21 10:20:00,31.8,16.2,29.63,ESE,109,0.0,0.0,52,0.00,,,0.00,Wunderground v.1.15,2013-03-21 14:20:00,
2013-03-21 10:30:00,31.9,15.8,29.63,NE,49,1.0,3.0,51,0.00,,,0.00,Wunderground v.1.15,2013-03-21 14:30:00,
2013-03-21 10:40:00,32.1,16.0,29.63,NE,56,1.0,1.0,51,0.00,,,0.00,Wunderground v.1.15,2013-03-21 14:40:00,
2013-03-21 10:50:00,32.9,16.7,29.62,WSW,253,0.0,3.0,51,0.00,,,0.00,Wunderground v.1.15,2013-03-21 14:50:00,
2013-03-21 11:00:00,32.7,17.0,29.62,WSW,243,1.0,3.0,52,0.00,,,0.00,Wunderground v.1.15,2013-03-21 15:00:00,
2013-03-21 11:10:00,32.5,16.8,29.62,East,97,1.0,1.0,52,0.00,,,0.00,Wunderground v.1.15,2013-03-21 15:10:00,
2013-03-21 11:20:00,32.5,18.1,29.61,South,184,0.0,0.0,55,0.00,,,0.00,Wunderground v.1.15,2013-03-21 15:20:00,
2013-03-21 11:30:00,32.9,18.1,29.61,SSE,158,0.0,0.0,54,0.00,,,0.00,Wunderground v.1.15,2013-03-21 15:30:00,
2013-03-21 11:40:00,32.9,17.6,29.61,SW,219,1.0,1.0,53,0.00,,,0.00,Wunderground v.1.15,2013-03-21 15:40:00,
2013-03-21 11:50:00,33.8,17.1,29.59,SW,233,1.0,2.0,50,0.00,,,0.00,Wunderground v.1.15,2013-03-21 15:50:00,
2013-03-21 12:00:00,34.7,16.5,29.59,SW,216,1.0,1.0,47,0.00,,,0.00,Wunderground v.1.15,2013-03-21 16:00:00,
2013-03-21 12:10:00,34.9,16.7,29.59,SSW,203,1.0,1.0,47,0.00,,,0.00,Wunderground v.1.15,2013-03-21 16:10:00,
2013-03-21 12:20:00,34.4,12.0,29.58,SW,219,1.0,1.0,39,0.00,,,0.01,Wunderground v.1.15,2013-03-21 16:20:00,
2013-03-21 12:30:00,34.9,13.5,29.58,WSW,241,1.0,1.0,41,0.00,,,0.01,Wunderground v.1.15,2013-03-21 16:30:00,
2013-03-21 12:40:00,34.4,11.4,29.58,SW,236,3.0,3.0,38,0.00,,,0.01,Wunderground v.1.15,2013-03-21 16:40:00,
2013-03-21 12:50:00,34.7,13.9,29.58,NE,55,0.0,1.0,42,0.00,,,0.01,Wunderground v.1.15,2013-03-21 16:50:00,
2013-03-21 13:00:00,34.4,14.7,29.57,ENE,62,1.0,1.0,44,0.00,,,0.01,Wunderground v.1.15,2013-03-21 17:00:00,
2013-03-21 13:10:00,34.6,13.3,29.57,SW,215,1.0,1.0,41,0.00,,,0.01,Wunderground v.1.15,2013-03-21 17:10:00,
2013-03-21 13:20:00,35.2,14.4,29.56,WSW,247,1.0,6.0,42,0.00,,,0.01,Wunderground v.1.15,2013-03-21 17:20:00,
2013-03-21 13:30:00,35.0,13.6,29.55,South,169,2.0,2.0,41,0.00,,,0.01,Wunderground v.1.15,2013-03-21 17:30:00,
2013-03-21 13:40:00,34.6,13.8,29.55,South,174,1.0,1.0,42,0.00,,,0.01,Wunderground v.1.15,2013-03-21 17:40:00,
2013-03-21 13:50:00,35.0,14.7,29.55,NNE,27,1.0,1.0,43,0.00,,,0.01,Wunderground v.1.15,2013-03-21 17:50:00,
2013-03-21 14:00:00,35.5,14.6,29.54,East,96,1.0,1.0,42,0.00,,,0.01,Wunderground v.1.15,2013-03-21 18:00:00,
2013-03-21 14:10:00,35.8,13.8,29.54,East,82,2.0,2.0,40,0.00,,,0.01,Wunderground v.1.15,2013-03-21 18:10:00,
2013-03-21 14:20:00,36.0,12.8,29.53,WSW,243,2.0,2.0,38,0.00,,,0.01,Wunderground v.1.15,2013-03-21 18:20:00,
2013-03-21 14:30:00,35.9,13.9,29.53,East,90,1.0,1.0,40,0.00,,,0.01,Wunderground v.1.15,2013-03-21 18:30:00,
2013-03-21 14:40:00,35.5,13.0,29.53,WSW,240,1.0,1.0,39,0.00,,,0.01,Wunderground v.1.15,2013-03-21 18:40:00,
2013-03-21 14:50:00,35.6,10.6,29.52,SE,140,1.0,1.0,35,0.00,,,0.01,Wunderground v.1.15,2013-03-21 18:50:00,
2013-03-21 15:00:00,36.3,9.9,29.51,ESE,112,1.0,1.0,33,0.00,,,0.01,Wunderground v.1.15,2013-03-21 19:00:00,
2013-03-21 15:10:00,36.2,11.1,29.51,NE,54,2.0,2.0,35,0.00,,,0.01,Wunderground v.1.15,2013-03-21 19:10:00,
2013-03-21 15:20:00,36.5,10.7,29.51,SSW,210,1.0,1.0,34,0.00,,,0.01,Wunderground v.1.15,2013-03-21 19:20:00,
2013-03-21 15:30:00,36.8,9.7,29.51,NE,47,1.0,1.0,32,0.00,,,0.01,Wunderground v.1.15,2013-03-21 19:30:00,
2013-03-21 15:40:00,36.8,8.9,29.51,South,191,1.0,1.0,31,0.00,,,0.01,Wunderground v.1.15,2013-03-21 19:40:00,
2013-03-21 15:50:00,36.9,8.3,29.50,SW,230,0.0,1.0,30,0.00,,,0.01,Wunderground v.1.15,2013-03-21 19:50:00,
2013-03-21 16:00:00,36.9,10.4,29.50,SSE,164,0.0,1.0,33,0.00,,,0.01,Wunderground v.1.15,2013-03-21 20:00:00,
2013-03-21 16:10:00,37.8,11.2,29.50,South,186,0.0,2.0,33,0.00,,,0.02,Wunderground v.1.15,2013-03-21 20:10:00,
2013-03-21 16:20:00,38.3,9.5,29.50,ENE,71,2.0,2.0,30,0.00,,,0.02,Wunderground v.1.15,2013-03-21 20:20:00,
2013-03-21 16:30:00,39.1,9.5,29.49,SE,133,0.0,0.0,29,0.00,,,0.02,Wunderground v.1.15,2013-03-21 20:30:00,
2013-03-21 16:40:00,39.2,8.8,29.49,SW,226,1.0,2.0,28,0.00,,,0.02,Wunderground v.1.15,2013-03-21 20:40:00,
2013-03-21 16:50:00,38.8,9.2,29.49,SSE,157,1.0,1.0,29,0.00,,,0.02,Wunderground v.1.15,2013-03-21 20:50:00,
2013-03-21 17:00:00,38.6,8.2,29.48,SSW,196,0.0,0.0,28,0.00,,,0.02,Wunderground v.1.15,2013-03-21 21:00:00,
2013-03-21 17:10:00,37.8,9.1,29.48,SW,234,1.0,2.0,30,0.00,,,0.02,Wunderground v.1.15,2013-03-21 21:10:00,
2013-03-21 17:20:00,37.5,9.6,29.48,SW,216,0.0,1.0,31,0.00,,,0.02,Wunderground v.1.15,2013-03-21 21:20:00,
2013-03-21 17:30:00,38.2,9.4,29.49,WSW,241,1.0,1.0,30,0.00,,,0.02,Wunderground v.1.15,2013-03-21 21:30:00,
2013-03-21 17:40:00,38.0,10.0,29.49,SW,227,1.0,1.0,31,0.00,,,0.02,Wunderground v.1.15,2013-03-21 21:40:00,
2013-03-21 21:30:00,32.2,11.1,29.56,SSW,195,1.0,1.0,41,0.00,,,0.02,Wunderground v.1.15,2013-03-22 01:30:00,
2013-03-21 21:40:00,32.1,11.0,29.56,WNW,291,1.0,2.0,41,0.00,,,0.02,Wunderground v.1.15,2013-03-22 01:40:00,
2013-03-21 21:50:00,31.8,12.3,29.57,ENE,71,0.0,0.0,44,0.00,,,0.02,Wunderground v.1.15,2013-03-22 01:50:00,
2013-03-21 22:00:00,31.6,11.1,29.57,ENE,69,0.0,2.0,42,0.00,,,0.02,Wunderground v.1.15,2013-03-22 02:00:00,
2013-03-21 22:10:00,31.5,13.1,29.57,SE,141,1.0,1.0,46,0.00,,,0.02,Wunderground v.1.15,2013-03-22 02:10:00,
2013-03-21 22:20:00,31.3,11.9,29.57,SW,217,1.0,1.0,44,0.00,,,0.02,Wunderground v.1.15,2013-03-22 02:20:00,
2013-03-21 22:30:00,31.2,12.8,29.58,South,169,1.0,1.0,46,0.00,,,0.02,Wunderground v.1.15,2013-03-22 02:30:00,
2013-03-21 22:40:00,31.0,12.6,29.58,ESE,112,0.0,0.0,46,0.00,,,0.02,Wunderground v.1.15,2013-03-22 02:40:00,
2013-03-21 22:50:00,30.7,13.3,29.58,East,100,0.0,1.0,48,0.00,,,0.02,Wunderground v.1.15,2013-03-22 02:50:00,
2013-03-21 23:00:00,30.7,12.3,29.58,WNW,288,2.0,2.0,46,0.00,,,0.02,Wunderground v.1.15,2013-03-22 03:00:00,
2013-03-21 23:10:00,30.4,13.5,29.58,SW,236,0.0,0.0,49,0.00,,,0.02,Wunderground v.1.15,2013-03-22 03:10:00,
2013-03-21 23:20:00,30.1,13.7,29.58,NW,305,1.0,1.0,50,0.00,,,0.02,Wunderground v.1.15,2013-03-22 03:20:00,
2013-03-21 23:30:00,30.1,11.8,29.59,SSE,168,1.0,1.0,46,0.00,,,0.02,Wunderground v.1.15,2013-03-22 03:30:00,
2013-03-21 23:40:00,30.0,11.7,29.59,SW,222,1.0,1.0,46,0.00,,,0.02,Wunderground v.1.15,2013-03-22 03:40:00,
2013-03-21 23:50:00,29.8,12.5,29.59,WSW,237,0.0,0.0,48,0.00,,,0.02,Wunderground v.1.15,2013-03-22 03:50:00,